sensor_id;sensor_type;location;lat;lon;timestamp;P1;durP1;ratioP1;P2;durP2;ratioP2
11608;SDS011;5860;52.018;8.536;2023-03-01T00:01:27;10.53;;;6.50;;
11608;SDS011;5860;52.018;8.536;2023-03-01T00:03:56;10.07;;;6.80;;
11608;SDS011;5860;52.018;8.536;2023-03-01T00:06:23;10.93;;;7.07;;
11608;SDS011;5860;52.018;8.536;2023-03-01T00:08:51;9.63;;;6.63;;
11608;SDS011;5860;52.018;8.536;2023-03-01T00:11:23;10.67;;;6.67;;
11608;SDS011;5860;52.018;8.536;2023-03-01T00:13:56;9.83;;;6.73;;
11608;SDS011;5860;52.018;8.536;2023-03-01T00:16:26;10.43;;;6.27;;
11608;SDS011;5860;52.018;8.536;2023-03-01T00:19:05;9.27;;;6.97;;
11608;SDS011;5860;52.018;8.536;2023-03-01T00:21:33;10.27;;;6.67;;
11608;SDS011;5860;52.018;8.536;2023-03-01T00:24:01;8.43;;;6.23;;
11608;SDS011;5860;52.018;8.536;2023-03-01T00:26:28;9.23;;;6.20;;
11608;SDS011;5860;52.018;8.536;2023-03-01T00:28:57;10.63;;;6.40;;
11608;SDS011;5860;52.018;8.536;2023-03-01T00:31:25;10.43;;;7.03;;
11608;SDS011;5860;52.018;8.536;2023-03-01T00:33:55;10.27;;;6.67;;
11608;SDS011;5860;52.018;8.536;2023-03-01T00:36:25;12.83;;;6.20;;
11608;SDS011;5860;52.018;8.536;2023-03-01T00:38:54;9.27;;;6.13;;
11608;SDS011;5860;52.018;8.536;2023-03-01T00:41:21;9.00;;;6.00;;
11608;SDS011;5860;52.018;8.536;2023-03-01T00:43:49;9.20;;;6.07;;
11608;SDS011;5860;52.018;8.536;2023-03-01T00:46:17;9.73;;;5.87;;
11608;SDS011;5860;52.018;8.536;2023-03-01T00:48:46;9.07;;;6.17;;
11608;SDS011;5860;52.018;8.536;2023-03-01T00:51:14;9.73;;;6.03;;
11608;SDS011;5860;52.018;8.536;2023-03-01T00:53:43;9.07;;;6.00;;
11608;SDS011;5860;52.018;8.536;2023-03-01T00:56:11;9.33;;;6.40;;
11608;SDS011;5860;52.018;8.536;2023-03-01T00:58:39;7.63;;;5.60;;
11608;SDS011;5860;52.018;8.536;2023-03-01T01:01:07;9.83;;;6.23;;
11608;SDS011;5860;52.018;8.536;2023-03-01T01:03:47;8.80;;;6.30;;
11608;SDS011;5860;52.018;8.536;2023-03-01T01:06:15;8.93;;;6.30;;
11608;SDS011;5860;52.018;8.536;2023-03-01T01:08:43;8.17;;;5.83;;
11608;SDS011;5860;52.018;8.536;2023-03-01T01:11:11;9.03;;;6.57;;
11608;SDS011;5860;52.018;8.536;2023-03-01T01:13:39;11.47;;;7.27;;
11608;SDS011;5860;52.018;8.536;2023-03-01T01:16:07;9.77;;;5.77;;
11608;SDS011;5860;52.018;8.536;2023-03-01T01:18:35;11.43;;;6.53;;
11608;SDS011;5860;52.018;8.536;2023-03-01T01:21:05;12.07;;;6.13;;
11608;SDS011;5860;52.018;8.536;2023-03-01T01:23:34;9.17;;;6.63;;
11608;SDS011;5860;52.018;8.536;2023-03-01T01:28:58;11.13;;;6.00;;
11608;SDS011;5860;52.018;8.536;2023-03-01T01:31:26;12.47;;;6.77;;
11608;SDS011;5860;52.018;8.536;2023-03-01T01:33:54;8.70;;;5.90;;
11608;SDS011;5860;52.018;8.536;2023-03-01T01:36:22;9.60;;;6.67;;
11608;SDS011;5860;52.018;8.536;2023-03-01T01:38:49;10.33;;;6.93;;
11608;SDS011;5860;52.018;8.536;2023-03-01T01:41:16;8.87;;;6.67;;
11608;SDS011;5860;52.018;8.536;2023-03-01T01:43:45;12.97;;;7.07;;
11608;SDS011;5860;52.018;8.536;2023-03-01T01:46:32;9.10;;;6.50;;
11608;SDS011;5860;52.018;8.536;2023-03-01T01:49:01;9.30;;;6.63;;
11608;SDS011;5860;52.018;8.536;2023-03-01T01:51:44;12.50;;;7.13;;
11608;SDS011;5860;52.018;8.536;2023-03-01T01:54:16;12.20;;;6.97;;
11608;SDS011;5860;52.018;8.536;2023-03-01T01:56:49;10.07;;;6.53;;
11608;SDS011;5860;52.018;8.536;2023-03-01T01:59:21;9.47;;;6.70;;
11608;SDS011;5860;52.018;8.536;2023-03-01T02:01:51;10.20;;;6.70;;
11608;SDS011;5860;52.018;8.536;2023-03-01T02:04:19;11.40;;;6.73;;
11608;SDS011;5860;52.018;8.536;2023-03-01T02:06:58;9.47;;;6.63;;
11608;SDS011;5860;52.018;8.536;2023-03-01T02:09:29;12.40;;;7.43;;
11608;SDS011;5860;52.018;8.536;2023-03-01T02:11:57;9.77;;;6.93;;
11608;SDS011;5860;52.018;8.536;2023-03-01T02:14:25;11.37;;;6.33;;
11608;SDS011;5860;52.018;8.536;2023-03-01T02:16:52;8.33;;;6.40;;
11608;SDS011;5860;52.018;8.536;2023-03-01T02:19:26;9.97;;;7.03;;
11608;SDS011;5860;52.018;8.536;2023-03-01T02:27:20;9.63;;;6.93;;
11608;SDS011;5860;52.018;8.536;2023-03-01T02:29:53;11.27;;;7.73;;
11608;SDS011;5860;52.018;8.536;2023-03-01T02:32:22;10.77;;;6.97;;
11608;SDS011;5860;52.018;8.536;2023-03-01T02:34:52;12.93;;;7.03;;
11608;SDS011;5860;52.018;8.536;2023-03-01T02:37:20;14.90;;;8.83;;
11608;SDS011;5860;52.018;8.536;2023-03-01T02:39:53;16.03;;;9.37;;
11608;SDS011;5860;52.018;8.536;2023-03-01T02:42:33;13.97;;;8.27;;
11608;SDS011;5860;52.018;8.536;2023-03-01T02:45:05;14.77;;;9.13;;
11608;SDS011;5860;52.018;8.536;2023-03-01T02:47:32;13.53;;;9.23;;
11608;SDS011;5860;52.018;8.536;2023-03-01T02:49:59;12.57;;;9.37;;
11608;SDS011;5860;52.018;8.536;2023-03-01T02:55:12;13.63;;;9.53;;
11608;SDS011;5860;52.018;8.536;2023-03-01T02:57:44;13.77;;;9.50;;
11608;SDS011;5860;52.018;8.536;2023-03-01T03:00:13;13.83;;;9.27;;
11608;SDS011;5860;52.018;8.536;2023-03-01T03:02:48;15.87;;;9.77;;
11608;SDS011;5860;52.018;8.536;2023-03-01T03:05:17;13.70;;;9.17;;
11608;SDS011;5860;52.018;8.536;2023-03-01T03:07:47;13.33;;;8.80;;
11608;SDS011;5860;52.018;8.536;2023-03-01T03:10:19;13.80;;;8.93;;
11608;SDS011;5860;52.018;8.536;2023-03-01T03:12:53;15.20;;;9.67;;
11608;SDS011;5860;52.018;8.536;2023-03-01T03:15:22;14.20;;;8.43;;
11608;SDS011;5860;52.018;8.536;2023-03-01T03:17:50;11.93;;;8.17;;
11608;SDS011;5860;52.018;8.536;2023-03-01T03:20:19;11.10;;;7.27;;
11608;SDS011;5860;52.018;8.536;2023-03-01T03:22:52;13.23;;;7.93;;
11608;SDS011;5860;52.018;8.536;2023-03-01T03:25:21;11.63;;;7.70;;
11608;SDS011;5860;52.018;8.536;2023-03-01T03:27:49;10.03;;;7.20;;
11608;SDS011;5860;52.018;8.536;2023-03-01T03:30:23;11.27;;;7.60;;
11608;SDS011;5860;52.018;8.536;2023-03-01T03:32:55;12.07;;;7.67;;
11608;SDS011;5860;52.018;8.536;2023-03-01T03:35:31;12.60;;;8.00;;
11608;SDS011;5860;52.018;8.536;2023-03-01T03:38:01;11.37;;;7.90;;
11608;SDS011;5860;52.018;8.536;2023-03-01T03:40:33;16.33;;;8.13;;
11608;SDS011;5860;52.018;8.536;2023-03-01T03:43:06;14.23;;;8.87;;
11608;SDS011;5860;52.018;8.536;2023-03-01T03:45:35;14.03;;;9.23;;
11608;SDS011;5860;52.018;8.536;2023-03-01T03:48:03;13.33;;;8.73;;
11608;SDS011;5860;52.018;8.536;2023-03-01T03:50:31;13.13;;;9.20;;
11608;SDS011;5860;52.018;8.536;2023-03-01T03:53:03;14.90;;;9.10;;
11608;SDS011;5860;52.018;8.536;2023-03-01T03:55:32;14.20;;;10.03;;
11608;SDS011;5860;52.018;8.536;2023-03-01T03:58:00;16.17;;;9.63;;
11608;SDS011;5860;52.018;8.536;2023-03-01T04:00:34;19.37;;;10.37;;
11608;SDS011;5860;52.018;8.536;2023-03-01T04:03:02;13.37;;;10.00;;
11608;SDS011;5860;52.018;8.536;2023-03-01T04:05:30;13.67;;;9.17;;
11608;SDS011;5860;52.018;8.536;2023-03-01T04:07:57;15.70;;;10.10;;
11608;SDS011;5860;52.018;8.536;2023-03-01T04:10:32;15.77;;;9.67;;
11608;SDS011;5860;52.018;8.536;2023-03-01T04:13:01;14.20;;;10.33;;
11608;SDS011;5860;52.018;8.536;2023-03-01T04:15:29;14.10;;;10.37;;
11608;SDS011;5860;52.018;8.536;2023-03-01T04:17:57;13.13;;;10.37;;
11608;SDS011;5860;52.018;8.536;2023-03-01T04:20:29;12.47;;;10.07;;
11608;SDS011;5860;52.018;8.536;2023-03-01T04:22:58;15.93;;;9.73;;
11608;SDS011;5860;52.018;8.536;2023-03-01T04:28:12;14.33;;;10.47;;
11608;SDS011;5860;52.018;8.536;2023-03-01T04:30:39;12.83;;;8.90;;
11608;SDS011;5860;52.018;8.536;2023-03-01T04:33:08;12.30;;;8.77;;
11608;SDS011;5860;52.018;8.536;2023-03-01T04:35:36;15.23;;;9.57;;
11608;SDS011;5860;52.018;8.536;2023-03-01T04:38:04;13.90;;;9.83;;
11608;SDS011;5860;52.018;8.536;2023-03-01T04:40:31;11.90;;;9.13;;
11608;SDS011;5860;52.018;8.536;2023-03-01T04:42:59;12.47;;;9.10;;
11608;SDS011;5860;52.018;8.536;2023-03-01T04:45:26;13.00;;;8.97;;
11608;SDS011;5860;52.018;8.536;2023-03-01T04:47:54;16.07;;;9.20;;
11608;SDS011;5860;52.018;8.536;2023-03-01T04:50:21;11.27;;;8.83;;
11608;SDS011;5860;52.018;8.536;2023-03-01T04:52:50;15.80;;;10.33;;
11608;SDS011;5860;52.018;8.536;2023-03-01T04:55:18;14.17;;;9.17;;
11608;SDS011;5860;52.018;8.536;2023-03-01T04:57:45;13.03;;;9.70;;
11608;SDS011;5860;52.018;8.536;2023-03-01T05:00:13;16.93;;;9.73;;
11608;SDS011;5860;52.018;8.536;2023-03-01T05:05:16;15.27;;;10.30;;
11608;SDS011;5860;52.018;8.536;2023-03-01T05:07:43;16.97;;;11.07;;
11608;SDS011;5860;52.018;8.536;2023-03-01T05:10:10;15.73;;;10.37;;
11608;SDS011;5860;52.018;8.536;2023-03-01T05:12:37;15.47;;;9.63;;
11608;SDS011;5860;52.018;8.536;2023-03-01T05:15:04;17.43;;;10.33;;
11608;SDS011;5860;52.018;8.536;2023-03-01T05:17:33;15.80;;;9.90;;
11608;SDS011;5860;52.018;8.536;2023-03-01T05:20:00;13.83;;;9.13;;
11608;SDS011;5860;52.018;8.536;2023-03-01T05:22:29;12.37;;;9.63;;
11608;SDS011;5860;52.018;8.536;2023-03-01T05:24:56;14.50;;;9.50;;
11608;SDS011;5860;52.018;8.536;2023-03-01T05:27:22;15.87;;;9.73;;
11608;SDS011;5860;52.018;8.536;2023-03-01T05:29:49;17.60;;;10.40;;
11608;SDS011;5860;52.018;8.536;2023-03-01T05:32:16;16.77;;;10.73;;
11608;SDS011;5860;52.018;8.536;2023-03-01T05:34:43;15.70;;;10.23;;
11608;SDS011;5860;52.018;8.536;2023-03-01T05:37:12;12.03;;;9.87;;
11608;SDS011;5860;52.018;8.536;2023-03-01T05:39:40;23.60;;;10.93;;
11608;SDS011;5860;52.018;8.536;2023-03-01T05:42:09;15.70;;;9.83;;
11608;SDS011;5860;52.018;8.536;2023-03-01T05:44:37;15.90;;;11.00;;
11608;SDS011;5860;52.018;8.536;2023-03-01T05:47:03;17.77;;;10.87;;
11608;SDS011;5860;52.018;8.536;2023-03-01T05:49:31;14.47;;;10.40;;
11608;SDS011;5860;52.018;8.536;2023-03-01T05:51:58;14.67;;;10.30;;
11608;SDS011;5860;52.018;8.536;2023-03-01T05:54:25;16.83;;;10.23;;
11608;SDS011;5860;52.018;8.536;2023-03-01T05:56:52;19.07;;;10.40;;
11608;SDS011;5860;52.018;8.536;2023-03-01T05:59:19;17.43;;;10.40;;
11608;SDS011;5860;52.018;8.536;2023-03-01T06:01:46;15.90;;;11.07;;
11608;SDS011;5860;52.018;8.536;2023-03-01T06:04:13;19.03;;;10.73;;
11608;SDS011;5860;52.018;8.536;2023-03-01T06:06:40;15.83;;;10.60;;
11608;SDS011;5860;52.018;8.536;2023-03-01T06:09:07;15.00;;;10.57;;
11608;SDS011;5860;52.018;8.536;2023-03-01T06:11:36;14.83;;;10.27;;
11608;SDS011;5860;52.018;8.536;2023-03-01T06:14:03;19.97;;;11.23;;
11608;SDS011;5860;52.018;8.536;2023-03-01T06:16:32;18.60;;;11.57;;
11608;SDS011;5860;52.018;8.536;2023-03-01T06:18:59;17.93;;;11.73;;
11608;SDS011;5860;52.018;8.536;2023-03-01T06:21:26;17.83;;;12.33;;
11608;SDS011;5860;52.018;8.536;2023-03-01T06:23:53;17.80;;;11.97;;
11608;SDS011;5860;52.018;8.536;2023-03-01T06:26:20;19.97;;;11.73;;
11608;SDS011;5860;52.018;8.536;2023-03-01T06:28:47;23.00;;;13.83;;
11608;SDS011;5860;52.018;8.536;2023-03-01T06:31:13;25.57;;;13.03;;
11608;SDS011;5860;52.018;8.536;2023-03-01T06:33:41;27.20;;;13.17;;
11608;SDS011;5860;52.018;8.536;2023-03-01T06:36:07;24.33;;;11.97;;
11608;SDS011;5860;52.018;8.536;2023-03-01T06:38:36;18.30;;;12.80;;
11608;SDS011;5860;52.018;8.536;2023-03-01T06:41:03;22.67;;;12.93;;
11608;SDS011;5860;52.018;8.536;2023-03-01T06:43:30;17.33;;;12.27;;
11608;SDS011;5860;52.018;8.536;2023-03-01T06:45:57;20.13;;;12.63;;
11608;SDS011;5860;52.018;8.536;2023-03-01T06:48:24;17.80;;;11.43;;
11608;SDS011;5860;52.018;8.536;2023-03-01T06:50:51;16.67;;;12.07;;
11608;SDS011;5860;52.018;8.536;2023-03-01T06:53:18;18.53;;;12.10;;
11608;SDS011;5860;52.018;8.536;2023-03-01T06:55:45;21.23;;;12.93;;
11608;SDS011;5860;52.018;8.536;2023-03-01T06:58:12;20.37;;;12.90;;
11608;SDS011;5860;52.018;8.536;2023-03-01T07:00:39;18.80;;;11.87;;
11608;SDS011;5860;52.018;8.536;2023-03-01T07:03:07;26.77;;;13.13;;
11608;SDS011;5860;52.018;8.536;2023-03-01T07:05:35;20.50;;;12.13;;
11608;SDS011;5860;52.018;8.536;2023-03-01T07:08:01;18.50;;;11.47;;
11608;SDS011;5860;52.018;8.536;2023-03-01T07:10:29;17.50;;;11.80;;
11608;SDS011;5860;52.018;8.536;2023-03-01T07:12:56;22.07;;;12.67;;
11608;SDS011;5860;52.018;8.536;2023-03-01T07:15:24;17.07;;;11.93;;
11608;SDS011;5860;52.018;8.536;2023-03-01T07:17:52;17.00;;;12.27;;
11608;SDS011;5860;52.018;8.536;2023-03-01T07:20:20;19.80;;;11.93;;
11608;SDS011;5860;52.018;8.536;2023-03-01T07:22:52;16.57;;;11.43;;
11608;SDS011;5860;52.018;8.536;2023-03-01T07:25:19;19.10;;;12.07;;
11608;SDS011;5860;52.018;8.536;2023-03-01T07:27:50;18.50;;;12.10;;
11608;SDS011;5860;52.018;8.536;2023-03-01T07:30:18;19.27;;;12.07;;
11608;SDS011;5860;52.018;8.536;2023-03-01T07:32:46;18.60;;;12.10;;
11608;SDS011;5860;52.018;8.536;2023-03-01T07:35:13;14.90;;;11.30;;
11608;SDS011;5860;52.018;8.536;2023-03-01T07:37:41;17.43;;;12.37;;
11608;SDS011;5860;52.018;8.536;2023-03-01T07:40:08;18.43;;;11.30;;
11608;SDS011;5860;52.018;8.536;2023-03-01T07:42:35;19.57;;;11.97;;
11608;SDS011;5860;52.018;8.536;2023-03-01T07:45:03;20.63;;;12.33;;
11608;SDS011;5860;52.018;8.536;2023-03-01T07:47:31;18.27;;;10.80;;
11608;SDS011;5860;52.018;8.536;2023-03-01T07:49:58;18.73;;;11.67;;
11608;SDS011;5860;52.018;8.536;2023-03-01T07:52:27;15.30;;;11.57;;
11608;SDS011;5860;52.018;8.536;2023-03-01T07:54:54;27.53;;;11.93;;
11608;SDS011;5860;52.018;8.536;2023-03-01T07:57:22;18.90;;;11.83;;
11608;SDS011;5860;52.018;8.536;2023-03-01T07:59:49;15.07;;;10.90;;
11608;SDS011;5860;52.018;8.536;2023-03-01T08:02:16;15.73;;;11.00;;
11608;SDS011;5860;52.018;8.536;2023-03-01T08:04:43;18.47;;;11.33;;
11608;SDS011;5860;52.018;8.536;2023-03-01T08:07:10;17.73;;;11.27;;
11608;SDS011;5860;52.018;8.536;2023-03-01T08:09:37;19.20;;;12.10;;
11608;SDS011;5860;52.018;8.536;2023-03-01T08:12:05;20.37;;;11.20;;
11608;SDS011;5860;52.018;8.536;2023-03-01T08:14:32;14.97;;;10.70;;
11608;SDS011;5860;52.018;8.536;2023-03-01T08:16:59;15.43;;;10.03;;
11608;SDS011;5860;52.018;8.536;2023-03-01T08:19:26;13.87;;;9.97;;
11608;SDS011;5860;52.018;8.536;2023-03-01T08:21:54;15.40;;;10.07;;
11608;SDS011;5860;52.018;8.536;2023-03-01T08:24:24;16.60;;;9.97;;
11608;SDS011;5860;52.018;8.536;2023-03-01T08:26:51;13.53;;;9.27;;
11608;SDS011;5860;52.018;8.536;2023-03-01T08:29:19;14.17;;;9.70;;
11608;SDS011;5860;52.018;8.536;2023-03-01T08:31:46;15.37;;;9.97;;
11608;SDS011;5860;52.018;8.536;2023-03-01T08:34:15;14.40;;;9.63;;
11608;SDS011;5860;52.018;8.536;2023-03-01T08:36:43;12.63;;;9.67;;
11608;SDS011;5860;52.018;8.536;2023-03-01T08:39:15;20.57;;;9.67;;
11608;SDS011;5860;52.018;8.536;2023-03-01T08:41:43;13.73;;;9.80;;
11608;SDS011;5860;52.018;8.536;2023-03-01T08:44:13;14.60;;;9.40;;
11608;SDS011;5860;52.018;8.536;2023-03-01T08:46:43;12.00;;;9.10;;
11608;SDS011;5860;52.018;8.536;2023-03-01T08:49:12;13.40;;;9.83;;
11608;SDS011;5860;52.018;8.536;2023-03-01T08:51:41;16.27;;;9.27;;
11608;SDS011;5860;52.018;8.536;2023-03-01T08:54:10;15.10;;;9.53;;
11608;SDS011;5860;52.018;8.536;2023-03-01T08:56:42;16.33;;;9.93;;
11608;SDS011;5860;52.018;8.536;2023-03-01T08:59:10;14.67;;;10.03;;
11608;SDS011;5860;52.018;8.536;2023-03-01T09:01:38;15.23;;;9.90;;
11608;SDS011;5860;52.018;8.536;2023-03-01T09:04:06;18.27;;;9.67;;
11608;SDS011;5860;52.018;8.536;2023-03-01T09:06:33;14.03;;;8.90;;
11608;SDS011;5860;52.018;8.536;2023-03-01T09:09:01;15.47;;;8.83;;
11608;SDS011;5860;52.018;8.536;2023-03-01T09:11:29;13.30;;;9.17;;
11608;SDS011;5860;52.018;8.536;2023-03-01T09:13:56;13.33;;;9.17;;
11608;SDS011;5860;52.018;8.536;2023-03-01T09:16:23;14.33;;;9.90;;
11608;SDS011;5860;52.018;8.536;2023-03-01T09:18:51;18.30;;;10.63;;
11608;SDS011;5860;52.018;8.536;2023-03-01T09:21:19;14.57;;;9.47;;
11608;SDS011;5860;52.018;8.536;2023-03-01T09:24:04;12.40;;;9.17;;
11608;SDS011;5860;52.018;8.536;2023-03-01T09:26:31;12.73;;;9.03;;
11608;SDS011;5860;52.018;8.536;2023-03-01T09:28:59;15.37;;;9.60;;
11608;SDS011;5860;52.018;8.536;2023-03-01T09:31:26;14.37;;;9.00;;
11608;SDS011;5860;52.018;8.536;2023-03-01T09:33:53;12.87;;;8.23;;
11608;SDS011;5860;52.018;8.536;2023-03-01T09:36:22;11.83;;;8.60;;
11608;SDS011;5860;52.018;8.536;2023-03-01T09:38:51;14.70;;;9.10;;
11608;SDS011;5860;52.018;8.536;2023-03-01T09:44:34;14.93;;;8.40;;
11608;SDS011;5860;52.018;8.536;2023-03-01T09:47:09;13.37;;;8.43;;
11608;SDS011;5860;52.018;8.536;2023-03-01T09:52:28;11.40;;;8.00;;
11608;SDS011;5860;52.018;8.536;2023-03-01T09:55:13;13.27;;;8.40;;
11608;SDS011;5860;52.018;8.536;2023-03-01T10:03:17;16.60;;;11.07;;
11608;SDS011;5860;52.018;8.536;2023-03-01T10:08:58;15.57;;;10.03;;
11608;SDS011;5860;52.018;8.536;2023-03-01T10:11:45;11.23;;;7.57;;
11608;SDS011;5860;52.018;8.536;2023-03-01T10:17:25;11.53;;;7.43;;
11608;SDS011;5860;52.018;8.536;2023-03-01T10:20:20;13.00;;;7.83;;
11608;SDS011;5860;52.018;8.536;2023-03-01T10:22:49;12.90;;;7.53;;
11608;SDS011;5860;52.018;8.536;2023-03-01T10:25:24;11.33;;;7.07;;
11608;SDS011;5860;52.018;8.536;2023-03-01T10:30:44;10.23;;;6.80;;
11608;SDS011;5860;52.018;8.536;2023-03-01T10:33:24;12.17;;;6.90;;
11608;SDS011;5860;52.018;8.536;2023-03-01T10:35:55;11.33;;;7.10;;
11608;SDS011;5860;52.018;8.536;2023-03-01T10:38:22;11.80;;;7.57;;
11608;SDS011;5860;52.018;8.536;2023-03-01T10:40:56;11.43;;;7.07;;
11608;SDS011;5860;52.018;8.536;2023-03-01T10:43:25;8.70;;;6.30;;
11608;SDS011;5860;52.018;8.536;2023-03-01T10:45:58;9.83;;;6.47;;
11608;SDS011;5860;52.018;8.536;2023-03-01T10:48:25;9.70;;;6.63;;
11608;SDS011;5860;52.018;8.536;2023-03-01T10:53:42;9.10;;;6.67;;
11608;SDS011;5860;52.018;8.536;2023-03-01T10:56:15;9.03;;;6.50;;
11608;SDS011;5860;52.018;8.536;2023-03-01T10:58:58;12.33;;;6.80;;
11608;SDS011;5860;52.018;8.536;2023-03-01T11:01:28;9.90;;;6.43;;
11608;SDS011;5860;52.018;8.536;2023-03-01T11:06:36;10.33;;;6.47;;
11608;SDS011;5860;52.018;8.536;2023-03-01T11:09:20;9.17;;;5.97;;
11608;SDS011;5860;52.018;8.536;2023-03-01T11:11:51;9.73;;;5.70;;
11608;SDS011;5860;52.018;8.536;2023-03-01T11:14:24;7.97;;;5.63;;
11608;SDS011;5860;52.018;8.536;2023-03-01T11:17:14;8.67;;;5.70;;
11608;SDS011;5860;52.018;8.536;2023-03-01T11:22:45;8.73;;;5.93;;
11608;SDS011;5860;52.018;8.536;2023-03-01T11:25:19;8.13;;;5.53;;
11608;SDS011;5860;52.018;8.536;2023-03-01T11:27:52;8.10;;;5.80;;
11608;SDS011;5860;52.018;8.536;2023-03-01T11:33:20;10.13;;;5.80;;
11608;SDS011;5860;52.018;8.536;2023-03-01T11:36:49;10.63;;;5.77;;
11608;SDS011;5860;52.018;8.536;2023-03-01T11:39:26;8.47;;;5.03;;
11608;SDS011;5860;52.018;8.536;2023-03-01T11:42:15;7.70;;;4.43;;
11608;SDS011;5860;52.018;8.536;2023-03-01T11:44:47;6.00;;;4.30;;
11608;SDS011;5860;52.018;8.536;2023-03-01T11:47:27;7.53;;;4.47;;
11608;SDS011;5860;52.018;8.536;2023-03-01T11:50:30;6.03;;;3.83;;
11608;SDS011;5860;52.018;8.536;2023-03-01T11:53:50;13.40;;;4.77;;
11608;SDS011;5860;52.018;8.536;2023-03-01T12:03:55;6.43;;;4.20;;
11608;SDS011;5860;52.018;8.536;2023-03-01T12:12:12;5.97;;;3.90;;
11608;SDS011;5860;52.018;8.536;2023-03-01T12:17:56;6.53;;;4.23;;
11608;SDS011;5860;52.018;8.536;2023-03-01T12:26:26;8.23;;;5.30;;
11608;SDS011;5860;52.018;8.536;2023-03-01T12:32:09;6.70;;;4.17;;
11608;SDS011;5860;52.018;8.536;2023-03-01T12:34:45;5.57;;;3.83;;
11608;SDS011;5860;52.018;8.536;2023-03-01T12:51:07;5.97;;;4.47;;
11608;SDS011;5860;52.018;8.536;2023-03-01T12:53:42;5.53;;;4.20;;
11608;SDS011;5860;52.018;8.536;2023-03-01T12:56:14;6.67;;;4.70;;
11608;SDS011;5860;52.018;8.536;2023-03-01T13:07:19;7.63;;;4.40;;
11608;SDS011;5860;52.018;8.536;2023-03-01T13:15:27;6.20;;;3.90;;
11608;SDS011;5860;52.018;8.536;2023-03-01T13:17:57;5.40;;;3.77;;
11608;SDS011;5860;52.018;8.536;2023-03-01T13:31:04;5.80;;;3.63;;
11608;SDS011;5860;52.018;8.536;2023-03-01T13:33:40;4.73;;;3.70;;
11608;SDS011;5860;52.018;8.536;2023-03-01T13:36:46;6.33;;;3.47;;
11608;SDS011;5860;52.018;8.536;2023-03-01T13:41:58;6.50;;;3.50;;
11608;SDS011;5860;52.018;8.536;2023-03-01T13:44:29;6.17;;;3.90;;
11608;SDS011;5860;52.018;8.536;2023-03-01T13:47:02;5.60;;;3.33;;
11608;SDS011;5860;52.018;8.536;2023-03-01T13:49:42;5.30;;;3.47;;
11608;SDS011;5860;52.018;8.536;2023-03-01T13:54:54;5.13;;;3.37;;
11608;SDS011;5860;52.018;8.536;2023-03-01T13:57:24;5.27;;;3.73;;
11608;SDS011;5860;52.018;8.536;2023-03-01T13:59:55;6.13;;;3.50;;
11608;SDS011;5860;52.018;8.536;2023-03-01T14:02:22;7.43;;;3.37;;
11608;SDS011;5860;52.018;8.536;2023-03-01T14:04:57;6.20;;;4.13;;
11608;SDS011;5860;52.018;8.536;2023-03-01T14:07:25;5.30;;;3.50;;
11608;SDS011;5860;52.018;8.536;2023-03-01T14:09:57;7.57;;;3.90;;
11608;SDS011;5860;52.018;8.536;2023-03-01T14:20:23;5.20;;;3.47;;
11608;SDS011;5860;52.018;8.536;2023-03-01T14:22:55;6.73;;;3.70;;
11608;SDS011;5860;52.018;8.536;2023-03-01T14:27:58;7.23;;;3.57;;
11608;SDS011;5860;52.018;8.536;2023-03-01T14:30:36;7.60;;;3.60;;
11608;SDS011;5860;52.018;8.536;2023-03-01T14:33:17;5.57;;;3.80;;
11608;SDS011;5860;52.018;8.536;2023-03-01T14:35:53;5.73;;;3.83;;
11608;SDS011;5860;52.018;8.536;2023-03-01T14:41:18;5.03;;;3.50;;
11608;SDS011;5860;52.018;8.536;2023-03-01T14:43:58;6.63;;;3.43;;
11608;SDS011;5860;52.018;8.536;2023-03-01T14:46:41;6.00;;;3.63;;
11608;SDS011;5860;52.018;8.536;2023-03-01T14:49:11;5.80;;;3.27;;
11608;SDS011;5860;52.018;8.536;2023-03-01T14:51:51;4.27;;;2.87;;
11608;SDS011;5860;52.018;8.536;2023-03-01T14:54:25;6.40;;;3.70;;
11608;SDS011;5860;52.018;8.536;2023-03-01T14:56:54;5.20;;;3.13;;
11608;SDS011;5860;52.018;8.536;2023-03-01T14:59:26;7.57;;;3.77;;
11608;SDS011;5860;52.018;8.536;2023-03-01T15:01:54;5.87;;;3.60;;
11608;SDS011;5860;52.018;8.536;2023-03-01T15:04:23;4.93;;;3.33;;
11608;SDS011;5860;52.018;8.536;2023-03-01T15:06:53;5.07;;;2.80;;
11608;SDS011;5860;52.018;8.536;2023-03-01T15:09:21;4.43;;;3.17;;
11608;SDS011;5860;52.018;8.536;2023-03-01T15:11:49;4.73;;;3.27;;
11608;SDS011;5860;52.018;8.536;2023-03-01T15:20:16;6.10;;;3.00;;
11608;SDS011;5860;52.018;8.536;2023-03-01T15:22:48;3.97;;;3.20;;
11608;SDS011;5860;52.018;8.536;2023-03-01T15:25:18;4.33;;;3.00;;
11608;SDS011;5860;52.018;8.536;2023-03-01T15:27:48;4.60;;;3.07;;
11608;SDS011;5860;52.018;8.536;2023-03-01T15:30:17;4.10;;;2.80;;
11608;SDS011;5860;52.018;8.536;2023-03-01T15:33:39;6.00;;;3.47;;
11608;SDS011;5860;52.018;8.536;2023-03-01T15:35:56;6.90;;;3.00;;
11608;SDS011;5860;52.018;8.536;2023-03-01T15:38:35;4.50;;;3.00;;
11608;SDS011;5860;52.018;8.536;2023-03-01T15:41:29;6.47;;;3.00;;
11608;SDS011;5860;52.018;8.536;2023-03-01T15:43:59;6.80;;;3.30;;
11608;SDS011;5860;52.018;8.536;2023-03-01T15:46:33;3.40;;;2.80;;
11608;SDS011;5860;52.018;8.536;2023-03-01T15:49:04;4.93;;;2.67;;
11608;SDS011;5860;52.018;8.536;2023-03-01T15:51:51;3.23;;;2.30;;
11608;SDS011;5860;52.018;8.536;2023-03-01T15:54:22;5.10;;;3.20;;
11608;SDS011;5860;52.018;8.536;2023-03-01T15:56:50;5.30;;;3.07;;
11608;SDS011;5860;52.018;8.536;2023-03-01T15:59:18;4.53;;;2.80;;
11608;SDS011;5860;52.018;8.536;2023-03-01T16:01:45;4.40;;;3.17;;
11608;SDS011;5860;52.018;8.536;2023-03-01T16:04:15;6.50;;;2.90;;
11608;SDS011;5860;52.018;8.536;2023-03-01T16:06:50;5.40;;;3.10;;
11608;SDS011;5860;52.018;8.536;2023-03-01T16:09:24;3.70;;;2.90;;
11608;SDS011;5860;52.018;8.536;2023-03-01T16:11:53;5.57;;;3.03;;
11608;SDS011;5860;52.018;8.536;2023-03-01T16:14:20;5.00;;;3.00;;
11608;SDS011;5860;52.018;8.536;2023-03-01T16:16:48;3.73;;;2.93;;
11608;SDS011;5860;52.018;8.536;2023-03-01T16:19:15;4.13;;;3.00;;
11608;SDS011;5860;52.018;8.536;2023-03-01T16:21:42;5.23;;;2.83;;
11608;SDS011;5860;52.018;8.536;2023-03-01T16:24:13;5.20;;;3.10;;
11608;SDS011;5860;52.018;8.536;2023-03-01T16:26:40;7.03;;;3.40;;
11608;SDS011;5860;52.018;8.536;2023-03-01T16:29:08;4.90;;;2.70;;
11608;SDS011;5860;52.018;8.536;2023-03-01T16:31:35;5.07;;;2.90;;
11608;SDS011;5860;52.018;8.536;2023-03-01T16:34:03;5.00;;;3.07;;
11608;SDS011;5860;52.018;8.536;2023-03-01T16:36:30;5.60;;;2.87;;
11608;SDS011;5860;52.018;8.536;2023-03-01T16:38:58;4.20;;;2.73;;
11608;SDS011;5860;52.018;8.536;2023-03-01T16:41:26;5.03;;;3.00;;
11608;SDS011;5860;52.018;8.536;2023-03-01T16:43:54;5.70;;;3.27;;
11608;SDS011;5860;52.018;8.536;2023-03-01T16:46:23;5.77;;;3.40;;
11608;SDS011;5860;52.018;8.536;2023-03-01T16:48:52;6.03;;;2.70;;
11608;SDS011;5860;52.018;8.536;2023-03-01T16:51:20;5.87;;;3.30;;
11608;SDS011;5860;52.018;8.536;2023-03-01T16:53:49;5.13;;;3.23;;
11608;SDS011;5860;52.018;8.536;2023-03-01T16:56:16;4.20;;;2.50;;
11608;SDS011;5860;52.018;8.536;2023-03-01T16:58:44;3.93;;;3.33;;
11608;SDS011;5860;52.018;8.536;2023-03-01T17:01:13;4.87;;;3.27;;
11608;SDS011;5860;52.018;8.536;2023-03-01T17:03:43;5.43;;;3.30;;
11608;SDS011;5860;52.018;8.536;2023-03-01T17:06:13;5.23;;;3.20;;
11608;SDS011;5860;52.018;8.536;2023-03-01T17:08:43;5.63;;;3.10;;
11608;SDS011;5860;52.018;8.536;2023-03-01T17:11:11;5.80;;;3.40;;
11608;SDS011;5860;52.018;8.536;2023-03-01T17:13:40;5.13;;;3.27;;
11608;SDS011;5860;52.018;8.536;2023-03-01T17:16:09;6.87;;;3.77;;
11608;SDS011;5860;52.018;8.536;2023-03-01T17:18:38;4.50;;;3.43;;
11608;SDS011;5860;52.018;8.536;2023-03-01T17:21:05;11.37;;;3.77;;
11608;SDS011;5860;52.018;8.536;2023-03-01T17:23:33;4.20;;;3.10;;
11608;SDS011;5860;52.018;8.536;2023-03-01T17:26:03;9.23;;;3.93;;
11608;SDS011;5860;52.018;8.536;2023-03-01T17:28:31;6.37;;;4.00;;